Terminal Aerodrome Forecast
Issued by NWS Albuquerque, NM

Current Version | Previous Version | Text Only | Print | Product List | Glossary On
Versions: 1 2 3 4 5 6 7 8 9 10 11 12 13 14 15 16
344
FTUS45 KABQ 202340
TAFABQ
TAF
KABQ 202340Z 2100/2124 11011KT P6SM VCSH SCT035 BKN070
      TEMPO 2105/2109 VRB11G21KT 6SM -SHRA SCT020 BKN035
     FM210900 VRB06KT P6SM VCSH SCT020 BKN040
     FM211800 26008KT P6SM SCT060 BKN100=

USA.gov is the U.S. government's official web portal to all federal, state and local government web resources and services.